Almeria, Nebraska
Current Conditions -  °F | °C
As of 7:53 AM on Thursday 29 Jan 2015 (Local Time) from KODX Reporting Station
Overcast Overcast  
Wind Chill: -5°   Ceiling: 2800
Heat Index:   Visibility: 10mi
Dew Point: -4°   Wind: 25mph
Humidity: 64%   Direction: 340°NNW
Pressure: 30.36"   Gusts: 36mph
Location:  41.914°N, 99.4547°W
Report Text: KODX 291353Z AUTO 34022G31KT 10SM OVC028 02/M04 A3036 RMK AO2 PK WND 34031/1350 SLP294 T00171044
Loading
Personal Weather Stations






























Interactive Weather Map New forecast layout! Learn more

10-Day Weather Forecast

Advertisements
Track Severe Weather on mobile